Time,TemperatureF,DewpointF,PressureIn,WindDirection,WindDirectionDegrees,WindSpeedMPH,WindSpeedGustMPH,Humidity,HourlyPrecipIn,Conditions,Clouds,dailyrainin,SolarRadiationWatts/m^2,SoftwareType,DateUTC
2013-07-25 00:00:00,60.6,58.9,29.79,South,180,8.0,8.0,94,0.00,,,0.00,0,Wunderground v.1.15,2013-07-24 23:00:00,
2013-07-25 00:30:00,60.5,59.1,29.79,South,174,7.0,10.0,95,0.13,,,0.06,0,Wunderground v.1.15,2013-07-24 23:30:00,
2013-07-25 01:30:00,59.1,57.7,29.79,SSW,192,4.0,10.0,95,0.12,,,0.14,0,Wunderground v.1.15,2013-07-25 00:30:00,
2013-07-25 02:00:00,59.3,58.2,29.79,South,171,6.0,6.0,96,0.38,,,0.24,0,Wunderground v.1.15,2013-07-25 01:00:00,
2013-07-25 02:30:00,59.5,58.4,29.79,SSE,167,6.0,6.0,96,0.06,,,0.28,0,Wunderground v.1.15,2013-07-25 01:30:00,
2013-07-25 03:00:00,59.4,58.3,29.77,SSE,153,7.0,7.0,96,0.05,,,0.30,0,Wunderground v.1.15,2013-07-25 02:00:00,
2013-07-25 03:30:00,59.1,58.2,29.76,SE,144,8.0,8.0,97,0.00,,,0.31,0,Wunderground v.1.15,2013-07-25 02:30:00,
2013-07-25 04:00:00,58.5,57.7,29.77,SSE,163,8.0,8.0,97,0.00,,,0.31,0,Wunderground v.1.15,2013-07-25 03:00:00,
2013-07-25 04:30:00,58.4,57.6,29.77,SSE,167,5.0,5.0,97,0.00,,,0.31,0,Wunderground v.1.15,2013-07-25 03:30:00,
2013-07-25 05:00:00,58.4,57.6,29.77,SSE,167,5.0,5.0,97,0.00,,,0.31,0,Wunderground v.1.15,2013-07-25 04:00:00,
2013-07-25 05:30:00,58.4,57.6,29.77,SE,144,3.0,4.0,97,0.00,,,0.31,0,Wunderground v.1.15,2013-07-25 04:30:00,
2013-07-25 06:00:00,58.0,57.2,29.76,SSE,151,5.0,9.0,97,0.00,,,0.31,33,Wunderground v.1.15,2013-07-25 05:00:00,
2013-07-25 06:30:00,58.1,57.3,29.76,SSE,150,1.0,1.0,97,0.00,,,0.32,14,Wunderground v.1.15,2013-07-25 05:30:00,
2013-07-25 07:00:00,58.8,58.2,29.76,SSE,151,0.0,0.0,98,0.00,,,0.32,67,Wunderground v.1.15,2013-07-25 06:00:00,
2013-07-25 07:30:00,59.6,59.0,29.75,SSE,151,2.0,4.0,98,0.00,,,0.32,116,Wunderground v.1.15,2013-07-25 06:30:00,
2013-07-25 08:00:00,60.6,60.0,29.76,SSE,160,3.0,3.0,98,0.00,,,0.32,244,Wunderground v.1.15,2013-07-25 07:00:00,
2013-07-25 08:30:00,60.4,59.5,29.77,SE,145,1.0,5.0,97,0.00,,,0.32,130,Wunderground v.1.15,2013-07-25 07:30:00,
2013-07-25 09:00:00,61.3,60.4,29.77,SE,144,2.0,2.0,97,0.00,,,0.32,221,Wunderground v.1.15,2013-07-25 08:00:00,
2013-07-25 09:30:00,62.0,60.8,29.77,SE,145,0.0,0.0,96,0.00,,,0.32,174,Wunderground v.1.15,2013-07-25 08:30:00,
2013-07-25 10:00:00,62.5,60.7,29.77,SE,145,1.0,4.0,94,0.00,,,0.32,104,Wunderground v.1.15,2013-07-25 09:00:00,
2013-07-25 10:30:00,61.8,60.4,29.77,ESE,117,7.0,7.0,95,0.13,,,0.35,213,Wunderground v.1.15,2013-07-25 09:30:00,
2013-07-25 11:00:00,63.8,62.6,29.76,ESE,106,5.0,5.0,96,0.00,,,0.35,397,Wunderground v.1.15,2013-07-25 10:00:00,
2013-07-25 11:30:00,62.8,60.7,29.77,SE,138,9.0,9.0,93,0.00,,,0.35,420,Wunderground v.1.15,2013-07-25 10:30:00,
2013-07-25 12:00:00,63.3,60.9,29.76,ESE,118,5.0,5.0,92,0.00,,,0.35,387,Wunderground v.1.15,2013-07-25 11:00:00,
2013-07-25 12:30:00,66.7,62.7,29.76,SE,134,7.0,13.0,87,0.00,,,0.35,1320,Wunderground v.1.15,2013-07-25 11:30:00,
2013-07-25 13:00:00,67.1,61.4,29.76,East,96,4.0,7.0,82,0.00,,,0.35,450,Wunderground v.1.15,2013-07-25 12:00:00,
2013-07-25 13:30:00,66.5,61.2,29.77,ENE,74,3.0,4.0,83,0.00,,,0.35,336,Wunderground v.1.15,2013-07-25 12:30:00,
2013-07-25 14:00:00,65.5,61.5,29.77,East,90,2.0,4.0,87,0.13,,,0.36,121,Wunderground v.1.15,2013-07-25 13:00:00,
2013-07-25 14:30:00,63.7,61.3,29.77,East,90,1.0,1.0,92,0.08,,,0.41,63,Wunderground v.1.15,2013-07-25 13:30:00,
2013-07-25 15:00:00,62.9,60.8,29.78,ESE,110,3.0,3.0,93,0.10,,,0.44,223,Wunderground v.1.15,2013-07-25 14:00:00,
2013-07-25 15:30:00,63.2,61.7,29.78,ESE,111,0.0,1.0,95,0.05,,,0.46,193,Wunderground v.1.15,2013-07-25 14:30:00,
2013-07-25 16:00:00,66.8,64.1,29.77,NNW,336,3.0,3.0,91,0.05,,,0.49,295,Wunderground v.1.15,2013-07-25 15:00:00,
2013-07-25 16:30:00,67.4,62.4,29.77,West,274,4.0,4.0,84,0.06,,,0.50,548,Wunderground v.1.15,2013-07-25 15:30:00,
2013-07-25 17:00:00,67.6,61.6,29.77,WNW,284,5.0,5.0,81,0.05,,,0.53,700,Wunderground v.1.15,2013-07-25 16:00:00,
2013-07-25 17:30:00,68.8,60.2,29.77,WNW,282,3.0,3.0,74,0.05,,,0.55,489,Wunderground v.1.15,2013-07-25 16:30:00,
2013-07-25 18:00:00,70.2,63.0,29.77,NW,312,4.0,4.0,78,0.05,,,0.57,464,Wunderground v.1.15,2013-07-25 17:00:00,
2013-07-25 18:30:00,69.1,60.8,29.77,NW,319,3.0,3.0,75,0.04,,,0.58,130,Wunderground v.1.15,2013-07-25 17:30:00,
2013-07-25 19:00:00,69.4,61.5,29.77,NW,321,1.0,1.0,76,0.04,,,0.60,253,Wunderground v.1.15,2013-07-25 18:00:00,
2013-07-25 19:30:00,68.0,62.3,29.76,NNE,27,3.0,3.0,82,0.00,,,0.61,105,Wunderground v.1.15,2013-07-25 18:30:00,
2013-07-25 20:00:00,66.6,62.3,29.78,SE,129,7.0,8.0,86,0.00,,,0.62,142,Wunderground v.1.15,2013-07-25 19:00:00,
2013-07-25 20:30:00,63.3,58.4,29.79,SSW,192,11.0,12.0,84,0.00,,,0.63,14,Wunderground v.1.15,2013-07-25 19:30:00,
2013-07-25 21:00:00,60.6,57.7,29.80,WSW,250,12.0,12.0,90,0.00,,,0.64,0,Wunderground v.1.15,2013-07-25 20:00:00,
2013-07-25 21:30:00,58.8,56.8,29.81,WSW,253,6.0,7.0,93,0.00,,,0.65,0,Wunderground v.1.15,2013-07-25 20:30:00,
2013-07-25 22:00:00,58.7,57.0,29.81,WSW,252,3.0,3.0,94,0.00,,,0.65,0,Wunderground v.1.15,2013-07-25 21:00:00,
2013-07-25 22:30:00,58.6,56.9,29.81,WSW,252,2.0,3.0,94,0.00,,,0.66,0,Wunderground v.1.15,2013-07-25 21:30:00,
2013-07-25 23:00:00,58.3,56.6,29.81,WSW,252,4.0,4.0,94,0.00,,,0.66,0,Wunderground v.1.15,2013-07-25 22:00:00,
2013-07-25 23:30:00,58.5,56.5,29.81,SW,227,6.0,6.0,93,0.00,,,0.67,0,Wunderground v.1.15,2013-07-25 22:30:00,